createdAt,value
2023-04-14T00:00:38.346Z,100.00
2023-04-14T00:01:20.289Z,100.00
2023-04-14T00:02:02.010Z,100.00
2023-04-14T00:02:43.870Z,100.00
2023-04-14T00:03:25.887Z,100.00
2023-04-14T00:04:07.936Z,100.00
2023-04-14T00:04:53.526Z,100.00
2023-04-14T00:05:35.458Z,100.00
2023-04-14T00:06:17.384Z,100.00
2023-04-14T00:07:00.031Z,100.00
2023-04-14T00:07:41.857Z,100.00
2023-04-14T00:08:23.647Z,100.00
2023-04-14T00:09:05.325Z,100.00
2023-04-14T00:09:47.113Z,100.00
2023-04-14T00:10:28.803Z,100.00
2023-04-14T00:11:10.700Z,100.00
2023-04-14T00:11:52.762Z,100.00
2023-04-14T00:12:34.433Z,100.00
2023-04-14T00:13:16.100Z,100.00
2023-04-14T00:13:58.224Z,100.00
2023-04-14T00:14:39.864Z,100.00
2023-04-14T00:15:21.963Z,100.00
2023-04-14T00:16:06.124Z,100.00
2023-04-14T00:16:47.855Z,100.00
2023-04-14T00:17:31.150Z,100.00
2023-04-14T00:18:12.878Z,100.00
2023-04-14T00:18:54.547Z,100.00
2023-04-14T00:19:36.169Z,100.00
2023-04-14T00:20:17.770Z,100.00
2023-04-14T00:20:59.458Z,100.00
2023-04-14T00:21:41.233Z,100.00
2023-04-14T00:22:22.962Z,100.00
2023-04-14T00:23:04.689Z,100.00
2023-04-14T00:23:46.297Z,100.00
2023-04-14T00:24:27.924Z,100.00
2023-04-14T00:25:09.992Z,100.00
2023-04-14T00:25:51.684Z,100.00
2023-04-14T00:26:33.435Z,100.00
2023-04-14T00:27:15.705Z,100.00
2023-04-14T00:27:57.337Z,100.00
2023-04-14T00:28:39.031Z,100.00
2023-04-14T00:29:20.819Z,100.00
2023-04-14T00:30:02.496Z,100.00
2023-04-14T00:30:45.509Z,100.00
2023-04-14T00:31:27.365Z,100.00
2023-04-14T00:32:09.047Z,100.00
2023-04-14T00:32:50.839Z,100.00
2023-04-14T00:33:32.637Z,100.00
2023-04-14T00:34:16.469Z,100.00
2023-04-14T00:35:00.108Z,100.00
2023-04-14T00:35:41.823Z,100.00
2023-04-14T00:36:23.557Z,100.00
2023-04-14T00:37:05.259Z,100.00
2023-04-14T00:37:47.024Z,100.00
2023-04-14T00:38:28.719Z,100.00
2023-04-14T00:39:10.622Z,100.00
2023-04-14T00:39:52.340Z,100.00
2023-04-14T00:40:34.033Z,100.00
2023-04-14T00:41:15.698Z,100.00
2023-04-14T00:41:57.423Z,100.00
2023-04-14T00:42:45.632Z,100.00
2023-04-14T00:43:27.418Z,100.00
2023-04-14T00:44:09.717Z,100.00
2023-04-14T00:44:51.358Z,100.00
2023-04-14T00:45:44.715Z,100.00
2023-04-14T00:46:26.592Z,100.00
2023-04-14T00:47:08.193Z,100.00
2023-04-14T00:47:50.772Z,100.00
2023-04-14T00:48:32.771Z,100.00
2023-04-14T00:49:15.562Z,100.00
2023-04-14T00:49:58.396Z,100.00
2023-04-14T00:50:40.302Z,100.00
2023-04-14T00:51:23.577Z,100.00
2023-04-14T00:52:06.020Z,100.00
2023-04-14T00:52:50.067Z,100.00
2023-04-14T00:53:32.711Z,100.00
2023-04-14T00:54:17.478Z,100.00
2023-04-14T00:55:00.786Z,100.00
2023-04-14T00:55:42.980Z,100.00
2023-04-14T00:56:26.483Z,100.00
2023-04-14T00:57:09.337Z,100.00
2023-04-14T00:57:51.136Z,100.00
2023-04-14T00:58:32.834Z,100.00
2023-04-14T00:59:16.882Z,100.00
2023-04-14T01:00:00.761Z,100.00
2023-04-14T01:00:42.635Z,100.00
2023-04-14T01:01:49.238Z,100.00
2023-04-14T01:02:34.147Z,100.00
2023-04-14T01:03:16.603Z,100.00
2023-04-14T01:03:58.576Z,100.00
2023-04-14T01:04:52.892Z,100.00
2023-04-14T01:05:36.277Z,100.00
2023-04-14T01:06:17.865Z,100.00
2023-04-14T01:06:59.473Z,100.00
2023-04-14T01:07:41.578Z,100.00
2023-04-14T01:08:24.966Z,100.00
2023-04-14T01:09:07.028Z,100.00
2023-04-14T01:09:50.171Z,100.00
2023-04-14T01:10:41.240Z,100.00
2023-04-14T01:11:40.131Z,100.00
2023-04-14T01:12:30.596Z,100.00
2023-04-14T01:13:35.961Z,100.00
2023-04-14T01:14:42.890Z,100.00
2023-04-14T01:15:35.558Z,100.00
2023-04-14T01:16:31.829Z,100.00
2023-04-14T01:17:52.572Z,100.00
2023-04-14T01:18:43.256Z,100.00
2023-04-14T01:19:24.787Z,100.00
2023-04-14T01:20:32.976Z,100.00
2023-04-14T01:21:22.804Z,100.00
2023-04-14T01:22:06.287Z,100.00
2023-04-14T01:22:54.204Z,100.00
2023-04-14T01:23:41.861Z,100.00
2023-04-14T01:24:39.784Z,100.00
2023-04-14T01:25:39.547Z,100.00
2023-04-14T01:26:31.910Z,100.00
2023-04-14T01:27:35.307Z,100.00
2023-04-14T01:28:55.543Z,100.00
2023-04-14T01:29:55.442Z,100.00
2023-04-14T01:30:58.618Z,100.00
2023-04-14T01:31:55.234Z,100.00
2023-04-14T01:32:43.028Z,100.00
2023-04-14T01:33:26.953Z,100.00
2023-04-14T01:34:34.864Z,100.00
2023-04-14T01:35:26.333Z,100.00
2023-04-14T01:36:22.439Z,100.00
2023-04-14T01:37:31.493Z,100.00
2023-04-14T01:38:22.347Z,100.00
2023-04-14T01:39:08.329Z,100.00
2023-04-14T01:39:53.836Z,100.00
2023-04-14T01:40:41.222Z,100.00
2023-04-14T01:41:24.183Z,100.00
2023-04-14T01:42:11.273Z,100.00
2023-04-14T01:43:02.194Z,100.00
2023-04-14T01:43:47.987Z,100.00
2023-04-14T01:44:31.545Z,100.00
2023-04-14T01:45:23.043Z,100.00
2023-04-14T01:46:07.404Z,100.00
2023-04-14T01:46:55.052Z,100.00
2023-04-14T01:47:37.968Z,100.00
2023-04-14T01:48:20.158Z,100.00
2023-04-14T01:49:02.838Z,100.00
2023-04-14T01:49:45.721Z,100.00
2023-04-14T01:50:28.518Z,100.00
2023-04-14T01:51:13.515Z,100.00
2023-04-14T01:51:55.736Z,100.00
2023-04-14T01:52:39.316Z,100.00
2023-04-14T01:53:23.040Z,100.00
2023-04-14T01:54:06.103Z,100.00
2023-04-14T01:54:50.827Z,100.00
2023-04-14T01:55:36.084Z,100.00
2023-04-14T01:56:19.930Z,100.00
2023-04-14T01:57:03.752Z,100.00
2023-04-14T01:57:48.297Z,100.00
2023-04-14T01:58:32.145Z,100.00
2023-04-14T01:59:15.571Z,100.00
2023-04-14T02:00:00.946Z,100.00
2023-04-14T02:00:44.222Z,100.00
2023-04-14T02:01:27.831Z,100.00
2023-04-14T02:02:12.831Z,100.00
2023-04-14T02:02:55.814Z,100.00
2023-04-14T02:03:39.442Z,100.00
2023-04-14T02:04:25.536Z,100.00
2023-04-14T02:05:09.916Z,100.00
2023-04-14T02:05:55.388Z,100.00
2023-04-14T02:06:38.872Z,100.00
2023-04-14T02:07:22.040Z,100.00
2023-04-14T02:08:07.455Z,100.00
2023-04-14T02:08:50.913Z,100.00
2023-04-14T02:09:34.020Z,100.00
2023-04-14T02:10:19.942Z,100.00
2023-04-14T02:11:02.498Z,100.00
2023-04-14T02:11:49.002Z,100.00
2023-04-14T02:12:31.420Z,100.00
2023-04-14T02:13:14.371Z,100.00
2023-04-14T02:13:56.631Z,100.00
2023-04-14T02:14:42.584Z,100.00
2023-04-14T02:15:26.176Z,100.00
2023-04-14T02:16:10.852Z,100.00
2023-04-14T02:16:54.156Z,100.00
2023-04-14T02:17:36.717Z,100.00
2023-04-14T02:18:22.156Z,100.00
2023-04-14T02:19:05.185Z,100.00
2023-04-14T02:19:48.574Z,100.00
2023-04-14T02:20:30.452Z,100.00
2023-04-14T02:21:15.232Z,100.00
2023-04-14T02:21:58.602Z,100.00
2023-04-14T02:22:40.432Z,100.00
2023-04-14T02:23:22.034Z,100.00
2023-04-14T02:24:03.895Z,100.00
2023-04-14T02:24:47.747Z,100.00
2023-04-14T02:25:33.623Z,100.00
2023-04-14T02:26:18.639Z,100.00
2023-04-14T02:27:10.568Z,100.00
2023-04-14T02:27:58.674Z,100.00
2023-04-14T02:28:50.069Z,100.00
2023-04-14T02:29:33.758Z,100.00
2023-04-14T02:30:20.100Z,100.00
2023-04-14T02:31:07.429Z,100.00
2023-04-14T02:32:09.594Z,100.00
2023-04-14T02:32:57.351Z,100.00
2023-04-14T02:33:39.939Z,100.00
2023-04-14T02:34:25.249Z,100.00
2023-04-14T02:35:13.575Z,100.00
2023-04-14T02:36:04.446Z,100.00
2023-04-14T02:36:52.376Z,100.00
2023-04-14T02:37:41.417Z,100.00
2023-04-14T02:38:33.672Z,100.00
2023-04-14T02:39:19.375Z,100.00
2023-04-14T02:40:05.955Z,100.00
2023-04-14T02:40:48.826Z,100.00
2023-04-14T02:41:32.723Z,100.00
2023-04-14T02:42:16.297Z,100.00
2023-04-14T02:43:02.918Z,100.00
2023-04-14T02:43:49.244Z,100.00
2023-04-14T02:44:35.486Z,100.00
2023-04-14T02:45:22.525Z,100.00
2023-04-14T02:46:06.456Z,100.00
2023-04-14T02:46:57.779Z,100.00
2023-04-14T02:47:47.055Z,100.00
2023-04-14T02:48:32.444Z,100.00
2023-04-14T02:49:16.443Z,100.00
2023-04-14T02:50:00.463Z,100.00
2023-04-14T02:50:46.426Z,100.00
2023-04-14T02:51:35.632Z,100.00
2023-04-14T02:52:19.195Z,100.00
2023-04-14T02:53:03.675Z,100.00
2023-04-14T02:53:50.721Z,100.00
2023-04-14T02:54:46.538Z,100.00
2023-04-14T02:55:29.616Z,100.00
2023-04-14T02:56:12.116Z,100.00
2023-04-14T02:56:57.443Z,100.00
2023-04-14T02:57:41.176Z,100.00
2023-04-14T02:58:25.495Z,100.00
2023-04-14T02:59:07.814Z,100.00
2023-04-14T02:59:52.618Z,100.00
2023-04-14T03:00:35.660Z,100.00
2023-04-14T03:01:19.274Z,100.00
2023-04-14T03:02:06.015Z,100.00
2023-04-14T03:02:53.328Z,100.00
2023-04-14T03:03:37.654Z,100.00
2023-04-14T03:04:23.542Z,100.00
2023-04-14T03:05:06.707Z,100.00
2023-04-14T03:05:57.238Z,100.00
2023-04-14T03:06:39.550Z,100.00
2023-04-14T03:07:21.883Z,100.00
2023-04-14T03:08:05.138Z,100.00
2023-04-14T03:08:47.848Z,100.00
2023-04-14T03:09:32.043Z,100.00
2023-04-14T03:10:14.665Z,100.00
2023-04-14T03:10:57.203Z,100.00
2023-04-14T03:11:42.226Z,100.00
2023-04-14T03:12:25.337Z,100.00
2023-04-14T03:13:07.879Z,100.00
2023-04-14T03:13:53.702Z,100.00
2023-04-14T03:14:37.474Z,100.00
2023-04-14T03:15:21.641Z,100.00
2023-04-14T03:16:04.240Z,100.00
2023-04-14T03:16:49.498Z,100.00
2023-04-14T03:17:32.784Z,100.00
2023-04-14T03:18:15.739Z,100.00
2023-04-14T03:18:58.341Z,100.00
2023-04-14T03:19:41.696Z,100.00
2023-04-14T03:20:23.838Z,100.00
2023-04-14T03:21:07.548Z,100.00
2023-04-14T03:21:54.644Z,100.00
2023-04-14T03:22:40.720Z,100.00
2023-04-14T03:23:27.366Z,100.00
2023-04-14T03:24:18.042Z,100.00
2023-04-14T03:25:00.675Z,100.00
2023-04-14T03:25:46.526Z,100.00
2023-04-14T03:26:36.945Z,100.00
2023-04-14T03:27:26.212Z,100.00
2023-04-14T03:28:15.921Z,100.00
2023-04-14T03:29:02.447Z,100.00
2023-04-14T03:29:48.554Z,100.00
2023-04-14T03:30:33.740Z,100.00
2023-04-14T03:31:19.045Z,100.00
2023-04-14T03:32:06.985Z,100.00
2023-04-14T03:32:52.518Z,100.00
2023-04-14T03:33:35.621Z,100.00
2023-04-14T03:34:19.087Z,100.00
2023-04-14T03:35:07.787Z,100.00
2023-04-14T03:35:52.787Z,100.00
2023-04-14T03:36:36.605Z,100.00
2023-04-14T03:37:24.305Z,100.00
2023-04-14T03:38:09.727Z,100.00
2023-04-14T03:38:55.341Z,100.00
2023-04-14T03:39:39.155Z,100.00
2023-04-14T03:40:23.898Z,100.00
2023-04-14T03:41:07.375Z,100.00
2023-04-14T03:41:51.706Z,100.00
2023-04-14T03:42:36.322Z,100.00
2023-04-14T03:43:22.416Z,100.00
2023-04-14T03:44:15.618Z,100.00
2023-04-14T03:45:01.578Z,100.00
2023-04-14T03:45:49.192Z,100.00
2023-04-14T03:46:31.377Z,100.00
2023-04-14T03:47:14.452Z,100.00
2023-04-14T03:48:02.576Z,100.00
2023-04-14T03:48:50.381Z,100.00
2023-04-14T03:49:33.310Z,100.00
2023-04-14T03:50:17.464Z,100.00
2023-04-14T03:51:02.155Z,100.00
2023-04-14T03:51:49.537Z,100.00
2023-04-14T03:52:36.187Z,100.00
2023-04-14T03:53:19.369Z,100.00
2023-04-14T03:54:03.014Z,100.00
2023-04-14T03:54:45.900Z,100.00
2023-04-14T03:55:31.847Z,100.00
2023-04-14T03:56:15.490Z,100.00
2023-04-14T03:56:58.992Z,100.00
2023-04-14T03:57:43.936Z,100.00
2023-04-14T03:58:29.308Z,100.00
2023-04-14T03:59:15.301Z,100.00
2023-04-14T04:00:00.212Z,100.00
2023-04-14T04:00:43.003Z,100.00
2023-04-14T04:01:26.849Z,100.00
2023-04-14T04:02:09.748Z,100.00
2023-04-14T04:02:52.319Z,100.00
2023-04-14T04:03:36.839Z,100.00
2023-04-14T04:04:19.177Z,100.00
2023-04-14T04:05:01.924Z,100.00
2023-04-14T04:05:44.764Z,100.00
2023-04-14T04:06:27.709Z,100.00
2023-04-14T04:07:13.142Z,100.00
2023-04-14T04:07:58.711Z,100.00
2023-04-14T04:08:41.655Z,100.00
2023-04-14T04:09:25.254Z,100.00
2023-04-14T04:10:08.203Z,100.00
2023-04-14T04:10:51.400Z,100.00
2023-04-14T04:11:34.969Z,100.00
2023-04-14T04:12:20.432Z,100.00
2023-04-14T04:13:03.238Z,100.00
2023-04-14T04:13:48.372Z,100.00
2023-04-14T04:14:32.015Z,100.00
2023-04-14T04:15:13.849Z,100.00
2023-04-14T04:15:58.460Z,100.00
2023-04-14T04:16:42.558Z,100.00
2023-04-14T04:17:26.411Z,100.00
2023-04-14T04:18:10.976Z,100.00
2023-04-14T04:18:54.622Z,100.00
2023-04-14T04:19:44.651Z,100.00
2023-04-14T04:20:27.142Z,100.00
2023-04-14T04:21:10.431Z,100.00
2023-04-14T04:21:57.444Z,100.00
2023-04-14T04:22:41.888Z,100.00
2023-04-14T04:23:25.680Z,100.00
2023-04-14T04:24:10.267Z,100.00
2023-04-14T04:24:54.666Z,100.00
2023-04-14T04:25:41.560Z,100.00
2023-04-14T04:26:31.373Z,100.00
2023-04-14T04:27:26.681Z,100.00
2023-04-14T04:28:12.737Z,100.00
2023-04-14T04:28:57.934Z,100.00
2023-04-14T04:29:40.807Z,100.00
2023-04-14T04:30:24.015Z,100.00
2023-04-14T04:31:06.733Z,100.00
2023-04-14T04:31:48.553Z,100.00
2023-04-14T04:32:30.858Z,100.00
2023-04-14T04:33:13.956Z,100.00
2023-04-14T04:33:58.795Z,100.00
2023-04-14T04:34:41.251Z,100.00
2023-04-14T04:35:24.624Z,100.00
2023-04-14T04:36:07.379Z,100.00
2023-04-14T04:36:54.565Z,100.00
2023-04-14T04:37:39.194Z,100.00
2023-04-14T04:38:20.996Z,100.00
2023-04-14T04:39:03.317Z,100.00
2023-04-14T04:39:49.167Z,100.00
2023-04-14T04:40:38.577Z,100.00
2023-04-14T04:41:28.354Z,100.00
2023-04-14T04:42:11.917Z,100.00
2023-04-14T04:42:53.503Z,100.00
2023-04-14T04:43:35.412Z,100.00
2023-04-14T04:44:17.165Z,100.00
2023-04-14T04:44:58.953Z,100.00
2023-04-14T04:45:59.039Z,100.00
2023-04-14T04:46:55.388Z,100.00
2023-04-14T04:47:40.271Z,100.00
2023-04-14T04:48:21.867Z,100.00
2023-04-14T04:49:03.684Z,100.00
2023-04-14T04:49:45.331Z,100.00
2023-04-14T04:50:26.887Z,100.00
2023-04-14T04:51:08.514Z,100.00
2023-04-14T04:51:50.257Z,100.00
2023-04-14T04:52:33.598Z,100.00
2023-04-14T04:53:15.439Z,100.00
2023-04-14T04:53:57.014Z,100.00
2023-04-14T04:54:38.602Z,100.00
2023-04-14T04:55:21.075Z,100.00
2023-04-14T04:56:02.865Z,100.00
2023-04-14T04:56:44.470Z,100.00
2023-04-14T04:57:26.071Z,100.00
2023-04-14T04:58:11.174Z,100.00
2023-04-14T04:58:53.250Z,100.00
2023-04-14T04:59:36.606Z,100.00
2023-04-14T05:00:22.811Z,100.00
2023-04-14T05:01:09.372Z,100.00
2023-04-14T05:01:51.447Z,100.00
2023-04-14T05:02:33.302Z,100.00
2023-04-14T05:03:15.025Z,100.00
2023-04-14T05:03:56.996Z,100.00
2023-04-14T05:04:38.669Z,100.00
2023-04-14T05:05:20.481Z,100.00
2023-04-14T05:06:02.371Z,100.00
2023-04-14T05:06:43.939Z,100.00
2023-04-14T05:07:25.497Z,100.00
2023-04-14T05:08:07.759Z,100.00
2023-04-14T05:08:53.492Z,100.00
2023-04-14T05:09:35.392Z,100.00
2023-04-14T05:10:17.144Z,100.00
2023-04-14T05:10:58.899Z,100.00
2023-04-14T05:11:41.462Z,100.00
2023-04-14T05:12:23.192Z,100.00
2023-04-14T05:13:04.817Z,100.00
2023-04-14T05:13:46.873Z,100.00
2023-04-14T05:14:28.450Z,100.00
2023-04-14T05:15:10.898Z,100.00
2023-04-14T05:15:53.084Z,100.00
2023-04-14T05:16:34.743Z,100.00
2023-04-14T05:17:16.337Z,100.00
2023-04-14T05:17:59.130Z,100.00
2023-04-14T05:18:42.014Z,100.00
2023-04-14T05:19:23.653Z,100.00
2023-04-14T05:20:05.850Z,100.00
2023-04-14T05:20:47.506Z,100.00
2023-04-14T05:21:29.102Z,100.00
2023-04-14T05:22:10.935Z,100.00
2023-04-14T05:22:53.201Z,100.00
2023-04-14T05:23:37.398Z,100.00
2023-04-14T05:24:18.958Z,100.00
2023-04-14T05:25:01.307Z,100.00
2023-04-14T05:25:42.946Z,100.00
2023-04-14T05:27:14.077Z,100.00
2023-04-14T05:27:56.308Z,100.00
2023-04-14T05:28:38.217Z,100.00
2023-04-14T05:29:20.128Z,100.00
2023-04-14T05:30:01.930Z,100.00
2023-04-14T05:30:43.488Z,100.00
2023-04-14T05:31:25.461Z,100.00
2023-04-14T05:32:07.406Z,100.00
2023-04-14T05:32:49.116Z,100.00
2023-04-14T05:33:30.989Z,100.00
2023-04-14T05:34:12.628Z,100.00
2023-04-14T05:34:54.235Z,100.00
2023-04-14T05:35:36.098Z,100.00
2023-04-14T05:36:17.780Z,100.00
2023-04-14T05:36:59.473Z,100.00
2023-04-14T05:37:41.104Z,100.00
2023-04-14T05:38:22.825Z,100.00
2023-04-14T05:39:04.588Z,100.00
2023-04-14T05:39:46.237Z,100.00
2023-04-14T05:40:28.478Z,100.00
2023-04-14T05:41:10.220Z,100.00
2023-04-14T05:41:51.873Z,100.00
2023-04-14T05:42:33.448Z,100.00
2023-04-14T05:43:16.068Z,100.00
2023-04-14T05:43:57.719Z,100.00
2023-04-14T05:44:39.355Z,100.00
2023-04-14T05:45:21.112Z,100.00
2023-04-14T05:46:02.826Z,100.00
2023-04-14T05:46:44.512Z,100.00
2023-04-14T05:47:26.455Z,100.00
2023-04-14T05:48:08.542Z,100.00
2023-04-14T05:48:50.200Z,100.00
2023-04-14T05:49:31.857Z,100.00
2023-04-14T05:50:13.626Z,100.00
2023-04-14T05:50:55.412Z,100.00
2023-04-14T05:51:36.964Z,100.00
2023-04-14T05:52:18.587Z,100.00
2023-04-14T05:53:00.177Z,100.00
2023-04-14T05:53:41.751Z,100.00
2023-04-14T05:54:23.408Z,100.00
2023-04-14T05:55:05.354Z,100.00
2023-04-14T05:55:48.705Z,100.00
2023-04-14T05:56:30.556Z,100.00
2023-04-14T05:57:12.170Z,100.00
2023-04-14T05:57:53.778Z,100.00
2023-04-14T05:58:35.399Z,100.00
2023-04-14T05:59:17.353Z,100.00
2023-04-14T05:59:59.027Z,100.00
2023-04-14T06:00:40.773Z,100.00
2023-04-14T06:01:22.350Z,100.00
2023-04-14T06:02:07.298Z,100.00
2023-04-14T06:02:49.372Z,100.00
2023-04-14T06:03:31.924Z,100.00
2023-04-14T06:04:13.898Z,100.00
2023-04-14T06:04:56.304Z,100.00
2023-04-14T06:05:37.923Z,100.00
2023-04-14T06:06:22.476Z,100.00
2023-04-14T06:07:04.152Z,100.00
2023-04-14T06:07:46.976Z,100.00
2023-04-14T06:08:30.352Z,100.00
2023-04-14T06:09:12.022Z,100.00
2023-04-14T06:09:54.140Z,100.00
2023-04-14T06:10:35.837Z,100.00
2023-04-14T06:11:17.497Z,100.00
2023-04-14T06:11:59.209Z,100.00
2023-04-14T06:12:40.941Z,100.00
2023-04-14T06:13:22.974Z,100.00
2023-04-14T06:14:05.551Z,100.00
2023-04-14T06:14:47.207Z,100.00
2023-04-14T06:15:29.607Z,100.00
2023-04-14T06:16:11.184Z,100.00
2023-04-14T06:16:52.911Z,100.00
2023-04-14T06:17:35.363Z,100.00
2023-04-14T06:18:17.062Z,100.00
2023-04-14T06:18:58.854Z,100.00
2023-04-14T06:19:40.725Z,100.00
2023-04-14T06:20:22.380Z,100.00
2023-04-14T06:21:04.274Z,100.00
2023-04-14T06:21:47.041Z,100.00
2023-04-14T06:22:32.458Z,100.00
2023-04-14T06:23:14.123Z,100.00
2023-04-14T06:23:55.968Z,100.00
2023-04-14T06:24:37.606Z,100.00
2023-04-14T06:25:19.330Z,100.00
2023-04-14T06:26:01.289Z,100.00
2023-04-14T06:26:43.082Z,100.00
2023-04-14T06:27:25.285Z,100.00
2023-04-14T06:28:07.504Z,100.00
2023-04-14T06:28:49.160Z,100.00
2023-04-14T06:29:31.035Z,100.00
2023-04-14T06:30:15.300Z,100.00
2023-04-14T06:30:57.006Z,100.00
2023-04-14T06:31:38.728Z,100.00
2023-04-14T06:32:20.544Z,100.00
2023-04-14T06:33:04.701Z,100.00
2023-04-14T06:33:46.596Z,100.00
2023-04-14T06:34:28.189Z,100.00
2023-04-14T06:35:19.118Z,100.00
2023-04-14T06:36:04.127Z,100.00
2023-04-14T06:36:45.683Z,100.00
2023-04-14T06:37:27.290Z,100.00
2023-04-14T06:38:09.082Z,100.00
2023-04-14T06:38:50.687Z,100.00
2023-04-14T06:39:32.312Z,100.00
2023-04-14T06:40:13.975Z,100.00
2023-04-14T06:40:55.619Z,100.00
2023-04-14T06:41:37.236Z,100.00
2023-04-14T06:42:19.381Z,100.00
2023-04-14T06:43:01.097Z,100.00
2023-04-14T06:43:43.120Z,100.00
2023-04-14T06:44:24.840Z,100.00
2023-04-14T06:45:06.928Z,100.00
2023-04-14T06:45:50.688Z,100.00
2023-04-14T06:46:35.924Z,100.00
2023-04-14T06:47:19.680Z,100.00
2023-04-14T06:48:01.294Z,100.00
2023-04-14T06:48:43.638Z,100.00
2023-04-14T06:49:25.313Z,100.00
2023-04-14T06:50:07.309Z,100.00
2023-04-14T06:50:56.278Z,100.00
2023-04-14T06:51:39.231Z,100.00
2023-04-14T06:52:20.886Z,100.00
2023-04-14T06:53:02.987Z,100.00
2023-04-14T06:53:45.024Z,100.00
2023-04-14T06:54:26.820Z,100.00
2023-04-14T06:55:09.008Z,100.00
2023-04-14T06:56:08.929Z,100.00
2023-04-14T06:56:50.789Z,100.00
2023-04-14T06:57:32.438Z,100.00
2023-04-14T06:58:14.169Z,100.00
2023-04-14T06:58:55.874Z,100.00
2023-04-14T06:59:37.697Z,100.00
2023-04-14T07:00:19.602Z,100.00
2023-04-14T07:01:02.817Z,100.00
2023-04-14T07:01:44.671Z,100.00
2023-04-14T07:02:26.669Z,100.00
2023-04-14T07:03:09.327Z,100.00
2023-04-14T07:03:51.107Z,100.00
2023-04-14T07:04:32.992Z,100.00
2023-04-14T07:05:15.001Z,100.00
2023-04-14T07:06:08.225Z,100.00
2023-04-14T07:06:49.871Z,100.00
2023-04-14T07:07:37.380Z,100.00
2023-04-14T07:08:20.178Z,100.00
2023-04-14T07:09:01.845Z,100.00
2023-04-14T07:09:43.664Z,100.00
2023-04-14T07:10:25.376Z,100.00
2023-04-14T07:11:10.331Z,100.00
2023-04-14T07:11:53.497Z,100.00
2023-04-14T07:12:35.438Z,100.00
2023-04-14T07:13:17.122Z,100.00
2023-04-14T07:13:58.893Z,100.00
2023-04-14T07:14:41.332Z,100.00
2023-04-14T07:15:22.960Z,100.00
2023-04-14T07:16:06.582Z,100.00
2023-04-14T07:16:48.465Z,100.00
2023-04-14T07:17:30.517Z,100.00
2023-04-14T07:18:12.367Z,100.00
2023-04-14T07:18:54.072Z,100.00
2023-04-14T07:19:35.785Z,100.00
2023-04-14T07:20:17.479Z,100.00
2023-04-14T07:20:59.787Z,100.00
2023-04-14T07:21:41.706Z,100.00
2023-04-14T07:22:23.369Z,100.00
2023-04-14T07:23:04.949Z,100.00
2023-04-14T07:23:46.596Z,100.00
2023-04-14T07:24:28.237Z,100.00
2023-04-14T07:25:10.163Z,100.00
2023-04-14T07:25:54.015Z,100.00
2023-04-14T07:26:35.652Z,100.00
2023-04-14T07:27:17.327Z,100.00
2023-04-14T07:28:04.626Z,100.00
2023-04-14T07:28:47.118Z,100.00
2023-04-14T07:29:29.340Z,100.00
2023-04-14T07:30:11.544Z,100.00
2023-04-14T07:30:53.569Z,100.00
2023-04-14T07:31:37.952Z,100.00
2023-04-14T07:32:19.761Z,100.00
2023-04-14T07:33:02.371Z,100.00
2023-04-14T07:33:44.137Z,100.00
2023-04-14T07:34:25.970Z,100.00
2023-04-14T07:35:10.808Z,100.00
2023-04-14T07:36:01.893Z,100.00
2023-04-14T07:36:45.432Z,100.00
2023-04-14T07:37:27.170Z,100.00
2023-04-14T07:38:08.815Z,100.00
2023-04-14T07:38:51.514Z,100.00
2023-04-14T07:39:33.468Z,100.00
2023-04-14T07:40:15.886Z,100.00
2023-04-14T07:40:57.525Z,100.00
2023-04-14T07:41:39.176Z,100.00
2023-04-14T07:42:20.870Z,100.00
2023-04-14T07:43:02.802Z,100.00
2023-04-14T07:43:44.544Z,100.00
2023-04-14T07:44:26.390Z,100.00
2023-04-14T07:45:08.570Z,100.00
2023-04-14T07:45:52.410Z,100.00
2023-04-14T07:46:34.143Z,100.00
2023-04-14T07:47:16.180Z,100.00
2023-04-14T07:47:58.285Z,100.00
2023-04-14T07:48:40.270Z,100.00
2023-04-14T07:49:21.866Z,100.00
2023-04-14T07:50:03.862Z,100.00
2023-04-14T07:50:48.263Z,100.00
2023-04-14T07:51:29.878Z,100.00
2023-04-14T07:52:12.574Z,100.00
2023-04-14T07:52:55.295Z,100.00
2023-04-14T07:53:42.212Z,100.00
2023-04-14T07:54:24.360Z,100.00
2023-04-14T07:55:06.196Z,100.00
2023-04-14T07:55:47.841Z,100.00
2023-04-14T07:56:29.477Z,100.00
2023-04-14T07:57:11.270Z,100.00
2023-04-14T07:57:52.924Z,100.00
2023-04-14T07:58:34.539Z,100.00
2023-04-14T07:59:16.391Z,100.00
2023-04-14T07:59:58.061Z,100.00
2023-04-14T08:00:39.694Z,100.00
2023-04-14T08:01:21.354Z,100.00
2023-04-14T08:02:03.092Z,100.00
2023-04-14T08:02:45.067Z,100.00
2023-04-14T08:03:27.100Z,100.00
2023-04-14T08:04:09.284Z,100.00
2023-04-14T08:04:51.023Z,100.00
2023-04-14T08:05:32.763Z,100.00
2023-04-14T08:06:14.457Z,100.00
2023-04-14T08:06:56.448Z,100.00
2023-04-14T08:07:38.681Z,100.00
2023-04-14T08:08:20.393Z,100.00
2023-04-14T08:09:02.515Z,100.00
2023-04-14T08:09:44.504Z,100.00
2023-04-14T08:10:26.285Z,100.00
2023-04-14T08:11:07.933Z,100.00
2023-04-14T08:11:49.528Z,100.00
2023-04-14T08:12:31.465Z,100.00
2023-04-14T08:13:13.066Z,100.00
2023-04-14T08:13:54.678Z,100.00
2023-04-14T08:14:36.401Z,100.00
2023-04-14T08:15:18.268Z,100.00
2023-04-14T08:15:59.956Z,100.00
2023-04-14T08:16:41.885Z,100.00
2023-04-14T08:17:24.418Z,100.00
2023-04-14T08:18:06.570Z,100.00
2023-04-14T08:18:48.997Z,100.00
2023-04-14T08:19:31.604Z,100.00
2023-04-14T08:20:13.336Z,100.00
2023-04-14T08:20:54.971Z,100.00
2023-04-14T08:21:36.710Z,100.00
2023-04-14T08:22:18.548Z,100.00
2023-04-14T08:23:00.267Z,100.00
2023-04-14T08:23:42.104Z,100.00
2023-04-14T08:24:23.812Z,100.00
2023-04-14T08:25:06.618Z,100.00
2023-04-14T08:25:48.513Z,100.00
2023-04-14T08:26:30.484Z,100.00
2023-04-14T08:27:12.089Z,100.00
2023-04-14T08:27:53.757Z,100.00
2023-04-14T08:28:35.673Z,100.00
2023-04-14T08:29:17.346Z,100.00
2023-04-14T08:29:59.063Z,100.00
2023-04-14T08:30:41.368Z,100.00
2023-04-14T08:31:24.464Z,100.00
2023-04-14T08:32:06.439Z,100.00
2023-04-14T08:32:48.877Z,100.00
2023-04-14T08:33:30.742Z,100.00
2023-04-14T08:34:12.499Z,100.00
2023-04-14T08:35:37.798Z,99.25
2023-04-14T08:36:01.179Z,100.00
2023-04-14T08:36:42.882Z,100.00
2023-04-14T08:37:24.532Z,95.24
2023-04-14T08:38:06.261Z,97.97
2023-04-14T08:38:47.996Z,96.44
2023-04-14T08:39:29.688Z,99.31
2023-04-14T08:40:12.340Z,98.44
2023-04-14T08:40:56.334Z,98.80
2023-04-14T08:41:39.109Z,95.76
2023-04-14T08:42:21.932Z,97.17
2023-04-14T08:43:03.914Z,92.39
2023-04-14T08:43:46.245Z,94.62
2023-04-14T08:44:29.278Z,93.05
2023-04-14T08:45:12.169Z,93.29
2023-04-14T08:45:55.438Z,94.30
2023-04-14T08:46:37.204Z,96.45
2023-04-14T08:47:21.656Z,98.06
2023-04-14T08:48:04.763Z,98.25
2023-04-14T08:48:50.321Z,99.75
2023-04-14T08:49:44.013Z,98.20
2023-04-14T08:50:31.982Z,93.48
2023-04-14T08:51:34.058Z,84.70
2023-04-14T08:52:18.162Z,86.26
2023-04-14T08:53:04.160Z,87.85
2023-04-14T08:53:48.288Z,89.32
2023-04-14T08:54:31.571Z,92.89
2023-04-14T08:55:15.497Z,94.33
2023-04-14T08:56:02.314Z,96.64
2023-04-14T08:56:44.128Z,95.48
2023-04-14T08:57:26.859Z,89.99
2023-04-14T08:58:12.072Z,90.99
2023-04-14T08:58:54.134Z,93.41
2023-04-14T08:59:36.545Z,87.57
2023-04-14T09:00:19.706Z,86.82
2023-04-14T09:01:03.264Z,90.39
2023-04-14T09:01:46.482Z,91.97
2023-04-14T09:02:28.500Z,92.65
2023-04-14T09:03:11.535Z,89.00
2023-04-14T09:03:54.398Z,88.17
2023-04-14T09:04:37.551Z,87.96
2023-04-14T09:05:19.747Z,87.76
2023-04-14T09:06:02.659Z,88.07
2023-04-14T09:06:44.331Z,82.91
2023-04-14T09:07:28.904Z,82.64
2023-04-14T09:08:12.392Z,83.65
2023-04-14T09:08:54.244Z,81.40
2023-04-14T09:09:36.433Z,83.20
2023-04-14T09:10:20.904Z,82.93
2023-04-14T09:11:03.952Z,85.33
2023-04-14T09:11:46.365Z,85.81